Time;durP1;ratioP1;P1;durP2;ratioP2;P2;SDS_P1;SDS_P2;PMS_P1;PMS_P2;Temp;Humidity;BMP_temperature;BMP_pressure;BME280_temperature;BME280_humidity;BME280_pressure;Samples;Min_cycle;Max_cycle;Signal;HPM_P1;HPM_P2
2022/04/02 00:01:22;;;;;;;7.55;4.13;;;;;;;;;;5033386;28;20026;-81
2022/04/02 00:03:48;;;;;;;5.95;3.55;;;;;;;;;;5040618;28;20024;-80
2022/04/02 00:06:14;;;;;;;5.95;3.70;;;;;;;;;;5036843;28;20065;-81
2022/04/02 00:08:40;;;;;;;8.38;3.28;;;;;;;;;;5030200;28;20029;-85
2022/04/02 00:11:07;;;;;;;9.75;4.55;;;;;;;;;;5034059;28;20120;-80
2022/04/02 00:13:34;;;;;;;8.57;4.20;;;;;;;;;;5040987;28;20029;-80
2022/04/02 00:16:00;;;;;;;9.02;2.90;;;;;;;;;;5039039;28;20034;-80
2022/04/02 00:18:29;;;;;;;17.20;2.65;;;;;;;;;;5043031;28;20039;-79
2022/04/02 00:20:55;;;;;;;5.10;2.85;;;;;;;;;;5052100;28;20048;-79
2022/04/02 00:23:36;;;;;;;6.40;4.03;;;;;;;;;;5044164;28;20021;-80
2022/04/02 00:26:09;;;;;;;6.60;3.65;;;;;;;;;;5039619;28;20033;-79
2022/04/02 00:28:36;;;;;;;4.78;3.30;;;;;;;;;;5040469;28;20032;-82
2022/04/02 00:31:02;;;;;;;5.03;3.00;;;;;;;;;;5032138;28;20492;-81
2022/04/02 00:33:28;;;;;;;5.82;3.22;;;;;;;;;;5042817;28;20037;-79
2022/04/02 00:35:54;;;;;;;2.90;2.15;;;;;;;;;;5034068;28;20037;-80
2022/04/02 00:38:20;;;;;;;4.45;2.65;;;;;;;;;;5042011;28;20076;-81
2022/04/02 00:40:46;;;;;;;7.28;3.10;;;;;;;;;;5043337;28;20025;-80
2022/04/02 00:43:22;;;;;;;4.45;3.05;;;;;;;;;;5039561;28;20142;-81
2022/04/02 00:45:48;;;;;;;5.05;2.22;;;;;;;;;;5044245;28;20043;-80
2022/04/02 00:48:14;;;;;;;6.20;3.13;;;;;;;;;;5041315;28;20496;-80
2022/04/02 00:50:41;;;;;;;4.43;2.63;;;;;;;;;;5037459;28;20028;-81
2022/04/02 00:53:07;;;;;;;6.18;3.70;;;;;;;;;;5044953;28;20040;-80
2022/04/02 00:55:33;;;;;;;8.50;3.20;;;;;;;;;;5041355;28;20064;-80
2022/04/02 00:57:59;;;;;;;5.70;2.97;;;;;;;;;;5040079;28;20112;-80
2022/04/02 01:00:25;;;;;;;6.97;2.97;;;;;;;;;;5040328;28;20037;-83
2022/04/02 01:02:52;;;;;;;6.40;2.85;;;;;;;;;;5037593;28;20168;-82
2022/04/02 01:05:18;;;;;;;5.43;3.50;;;;;;;;;;5042601;28;20628;-81
2022/04/02 01:07:44;;;;;;;4.15;3.10;;;;;;;;;;5038123;28;20107;-81
2022/04/02 01:10:10;;;;;;;5.78;4.10;;;;;;;;;;5043805;28;20025;-81
2022/04/02 01:12:36;;;;;;;7.95;2.75;;;;;;;;;;5041735;28;20106;-79
2022/04/02 01:15:02;;;;;;;4.53;2.33;;;;;;;;;;5039267;28;20014;-80
2022/04/02 01:17:28;;;;;;;3.63;2.58;;;;;;;;;;5043911;28;20381;-79
2022/04/02 01:19:54;;;;;;;12.38;3.63;;;;;;;;;;5045343;28;20032;-80
2022/04/02 01:22:22;;;;;;;4.40;2.65;;;;;;;;;;5049774;28;20037;-82
2022/04/02 01:24:48;;;;;;;13.48;2.30;;;;;;;;;;5044944;28;20049;-80
2022/04/02 01:27:14;;;;;;;5.65;3.50;;;;;;;;;;5047939;28;20490;-83
2022/04/02 01:29:40;;;;;;;7.43;3.35;;;;;;;;;;5047892;28;20427;-82
2022/04/02 01:32:06;;;;;;;6.40;3.42;;;;;;;;;;5045203;28;20029;-82
2022/04/02 01:34:32;;;;;;;5.32;2.60;;;;;;;;;;5046815;28;20456;-80
2022/04/02 01:36:58;;;;;;;6.10;2.58;;;;;;;;;;5043908;28;20735;-82
2022/04/02 01:39:24;;;;;;;3.75;2.72;;;;;;;;;;5042250;28;20033;-84
2022/04/02 01:41:50;;;;;;;4.95;2.63;;;;;;;;;;5040362;28;20453;-84
2022/04/02 01:44:17;;;;;;;4.47;2.28;;;;;;;;;;5041789;28;20025;-80
2022/04/02 01:46:43;;;;;;;6.40;3.25;;;;;;;;;;5040873;28;20041;-80
2022/04/02 01:49:08;;;;;;;7.57;3.35;;;;;;;;;;5048538;28;20028;-80
2022/04/02 01:51:34;;;;;;;6.43;2.92;;;;;;;;;;5041447;28;20029;-82
2022/04/02 01:54:00;;;;;;;4.80;2.88;;;;;;;;;;5048398;28;20112;-78
2022/04/02 01:56:27;;;;;;;4.95;3.25;;;;;;;;;;5046546;28;20499;-84
2022/04/02 01:58:53;;;;;;;3.30;2.20;;;;;;;;;;5041439;28;20104;-80
2022/04/02 02:01:19;;;;;;;4.75;2.67;;;;;;;;;;5048402;28;20025;-79
2022/04/02 02:03:45;;;;;;;5.15;2.80;;;;;;;;;;5045985;28;20064;-81
2022/04/02 02:06:11;;;;;;;8.25;3.95;;;;;;;;;;5047444;28;20028;-82
2022/04/02 02:08:38;;;;;;;6.30;3.80;;;;;;;;;;5045906;28;20041;-82
2022/04/02 02:11:04;;;;;;;3.95;2.45;;;;;;;;;;5049560;28;20554;-82
2022/04/02 02:13:30;;;;;;;2.58;1.88;;;;;;;;;;5038397;28;20033;-81
2022/04/02 02:15:56;;;;;;;9.30;3.42;;;;;;;;;;5038052;28;20067;-83
2022/04/02 02:18:22;;;;;;;5.53;2.60;;;;;;;;;;5042795;28;20025;-87
2022/04/02 02:20:48;;;;;;;4.13;1.88;;;;;;;;;;5048061;28;21430;-84
2022/04/02 02:23:14;;;;;;;7.28;3.30;;;;;;;;;;5041799;28;20076;-83
2022/04/02 02:25:40;;;;;;;3.38;2.50;;;;;;;;;;5044278;28;20397;-80
2022/04/02 02:28:06;;;;;;;4.63;2.90;;;;;;;;;;5048400;28;20067;-78
2022/04/02 02:30:32;;;;;;;6.35;3.22;;;;;;;;;;5042034;28;20032;-82
2022/04/02 02:35:49;;;;;;;4.70;3.08;;;;;;;;;;5024027;28;20056;-81
2022/04/02 02:38:15;;;;;;;4.72;2.30;;;;;;;;;;5047950;28;20033;-80
2022/04/02 02:40:41;;;;;;;2.80;2.47;;;;;;;;;;5045105;28;20041;-81
2022/04/02 02:43:08;;;;;;;4.93;2.88;;;0.80;99.90;;;;;;5052177;28;20092;-81
2022/04/02 02:45:34;;;;;;;5.03;2.58;;;;;;;;;;5041666;28;20017;-84
2022/04/02 02:48:01;;;;;;;6.07;3.78;;;;;;;;;;5047635;28;20024;-80
2022/04/02 02:50:28;;;;;;;6.15;3.00;;;;;;;;;;5049345;28;20120;-81
2022/04/02 02:52:54;;;;;;;7.28;3.08;;;;;;;;;;5040797;28;20072;-80
2022/04/02 02:55:21;;;;;;;7.70;3.28;;;;;;;;;;5040330;28;20021;-80
2022/04/02 02:57:47;;;;;;;5.63;3.00;;;;;;;;;;5045593;28;20041;-83
2022/04/02 03:00:14;;;;;;;4.47;3.05;;;;;;;;;;5053776;28;20093;-82
2022/04/02 03:02:40;;;;;;;3.85;2.05;;;;;;;;;;5062495;28;20210;-82
2022/04/02 03:05:10;;;;;;;8.55;3.03;;;;;;;;;;5047877;28;20488;-84
2022/04/02 03:07:37;;;;;;;3.58;2.78;;;;;;;;;;5046173;28;20035;-82
2022/04/02 03:10:03;;;;;;;6.20;3.25;;;;;;;;;;5047636;28;20028;-82
2022/04/02 03:12:29;;;;;;;4.20;2.33;;;;;;;;;;5043867;28;20028;-81
2022/04/02 03:14:55;;;;;;;5.70;2.20;;;;;;;;;;5042076;28;20032;-82
2022/04/02 03:17:21;;;;;;;4.70;2.42;;;;;;;;;;5037686;28;20037;-81
2022/04/02 03:19:47;;;;;;;4.65;3.13;;;;;;;;;;5041364;28;20423;-82
2022/04/02 03:22:13;;;;;;;4.25;2.53;;;;;;;;;;5042699;28;20037;-82
2022/04/02 03:24:39;;;;;;;4.53;2.83;;;;;;;;;;5045666;28;20480;-80
2022/04/02 03:27:05;;;;;;;4.53;2.65;;;;;;;;;;5034063;28;20032;-80
2022/04/02 03:29:32;;;;;;;3.08;2.10;;;;;;;;;;5039247;28;20029;-80
2022/04/02 03:31:58;;;;;;;5.13;3.00;;;;;;;;;;5043303;28;20033;-80
2022/04/02 03:34:24;;;;;;;5.32;2.67;;;;;;;;;;5049234;28;20021;-83
2022/04/02 03:36:50;;;;;;;2.38;2.03;;;;;;;;;;5041056;28;20045;-81
2022/04/02 03:39:16;;;;;;;4.22;2.10;;;;;;;;;;5046697;28;20029;-79
2022/04/02 03:41:42;;;;;;;4.53;2.22;;;;;;;;;;5050366;28;20029;-81
2022/04/02 03:44:08;;;;;;;5.72;2.95;;;;;;;;;;5039368;28;20478;-80
2022/04/02 03:49:19;;;;;;;4.57;2.75;;;;;;;;;;5041253;28;20104;-79
2022/04/02 03:51:45;;;;;;;3.70;2.38;;;;;;;;;;5039608;28;20036;-80
2022/04/02 03:54:11;;;;;;;3.22;2.55;;;;;;;;;;5037985;28;20029;-79
2022/04/02 03:56:37;;;;;;;2.88;1.95;;;;;;;;;;5043883;28;20045;-79
2022/04/02 03:59:03;;;;;;;3.15;2.05;;;;;;;;;;5034578;28;20089;-79
2022/04/02 04:01:29;;;;;;;3.55;2.58;;;;;;;;;;5044023;28;20041;-80
2022/04/02 04:03:55;;;;;;;6.05;2.85;;;;;;;;;;5042261;28;20028;-81
2022/04/02 04:06:21;;;;;;;3.90;2.00;;;;;;;;;;5035678;28;20130;-80
2022/04/02 04:08:47;;;;;;;6.35;2.65;;;;;;;;;;5042496;28;20028;-79
2022/04/02 04:11:14;;;;;;;3.17;1.83;;;;;;;;;;5041309;28;20049;-82
2022/04/02 04:13:40;;;;;;;3.90;2.08;;;;;;;;;;5043570;28;20048;-79
2022/04/02 04:16:07;;;;;;;3.05;2.00;;;;;;;;;;5038494;28;20059;-80
2022/04/02 04:18:34;;;;;;;2.97;2.17;;;;;;;;;;5044418;28;20029;-86
2022/04/02 04:21:00;;;;;;;2.25;1.35;;;;;;;;;;5037865;28;20108;-79
2022/04/02 04:23:26;;;;;;;3.28;2.10;;;;;;;;;;5036789;28;20075;-79
2022/04/02 04:25:52;;;;;;;4.90;2.92;;;;;;;;;;5042811;28;20032;-81
2022/04/02 04:28:18;;;;;;;6.68;2.95;;;;;;;;;;5037470;28;20018;-81
2022/04/02 04:30:45;;;;;;;7.68;2.97;;;;;;;;;;5037632;28;20105;-79
2022/04/02 04:33:12;;;;;;;4.80;2.33;;;;;;;;;;5033865;28;20404;-79
2022/04/02 04:35:38;;;;;;;2.65;1.60;;;;;;;;;;5037600;28;20032;-79
2022/04/02 04:38:04;;;;;;;4.85;2.03;;;;;;;;;;5035607;28;20040;-78
2022/04/02 04:40:30;;;;;;;4.03;2.13;;;;;;;;;;5034290;28;20029;-79
2022/04/02 04:42:56;;;;;;;4.03;2.55;;;;;;;;;;5036399;28;20040;-80
2022/04/02 04:45:22;;;;;;;1.95;1.50;;;;;;;;;;5036623;28;20049;-79
2022/04/02 04:47:48;;;;;;;2.58;2.03;;;;;;;;;;5038288;28;20036;-80
2022/04/02 04:50:14;;;;;;;3.08;2.50;;;;;;;;;;5040087;28;20026;-80
2022/04/02 04:52:41;;;;;;;3.47;1.90;;;;;;;;;;5040392;28;20059;-79
2022/04/02 04:55:07;;;;;;;4.25;2.47;;;;;;;;;;5042902;28;20025;-80
2022/04/02 04:57:34;;;;;;;3.83;2.10;;;;;;;;;;5035080;28;20041;-81
2022/04/02 05:00:00;;;;;;;2.10;1.52;;;;;;;;;;5042367;28;20032;-79
2022/04/02 05:02:26;;;;;;;4.35;2.08;;;;;;;;;;5029682;28;20056;-82
2022/04/02 05:04:52;;;;;;;3.80;2.30;;;;;;;;;;5030924;28;20104;-79
2022/04/02 05:07:18;;;;;;;6.03;2.20;;;;;;;;;;5029241;28;20082;-79
2022/04/02 05:09:45;;;;;;;4.28;2.47;;;;;;;;;;5026878;28;20511;-78
2022/04/02 05:12:12;;;;;;;2.58;2.30;;;;;;;;;;5029768;28;20057;-80
2022/04/02 05:14:38;;;;;;;3.53;2.25;;;;;;;;;;5026816;28;20063;-80
2022/04/02 05:17:04;;;;;;;5.55;2.85;;;;;;;;;;5030502;28;20065;-78
2022/04/02 05:19:30;;;;;;;3.50;2.58;;;;;;;;;;5033262;28;20118;-80
2022/04/02 05:21:56;;;;;;;4.18;2.28;;;;;;;;;;5025699;28;20127;-84
2022/04/02 05:24:22;;;;;;;5.57;2.88;;;;;;;;;;5027009;28;20037;-82
2022/04/02 05:26:49;;;;;;;5.10;2.60;;;;;;;;;;5039236;28;20032;-80
2022/04/02 05:29:16;;;;;;;7.03;3.28;;;;;;;;;;5037897;28;20525;-82
2022/04/02 05:31:42;;;;;;;3.22;2.75;;;;;;;;;;5039175;28;20112;-83
2022/04/02 05:34:09;;;;;;;6.32;3.38;;;;;;;;;;5044289;28;20048;-81
2022/04/02 05:36:35;;;;;;;5.47;3.15;;;;;;;;;;5039648;28;20048;-80
2022/04/02 05:39:01;;;;;;;4.57;3.08;;;;;;;;;;5039647;28;20033;-80
2022/04/02 05:41:28;;;;;;;5.40;3.35;;;;;;;;;;5035400;28;20033;-80
2022/04/02 05:43:54;;;;;;;3.10;2.45;;;;;;;;;;5032227;28;20045;-79
2022/04/02 05:46:21;;;;;;;4.25;2.83;;;;;;;;;;5038017;28;20496;-79
2022/04/02 05:48:47;;;;;;;6.07;3.33;;;;;;;;;;5029401;28;20132;-80
2022/04/02 05:51:13;;;;;;;5.25;3.20;;;;;;;;;;5039047;28;20041;-83
2022/04/02 05:53:39;;;;;;;7.75;2.55;;;;;;;;;;5035083;28;21590;-79
2022/04/02 05:56:05;;;;;;;3.88;2.33;;;;;;;;;;5034097;28;20041;-79
2022/04/02 05:58:31;;;;;;;17.38;2.55;;;;;;;;;;5035304;28;20021;-79
2022/04/02 06:00:57;;;;;;;5.75;3.08;;;;;;;;;;5030930;28;20040;-80
2022/04/02 06:03:23;;;;;;;4.50;2.78;;;;;;;;;;5034235;28;20033;-79
2022/04/02 06:05:50;;;;;;;3.53;2.95;;;;;;;;;;5020971;28;20052;-79
2022/04/02 06:08:16;;;;;;;7.45;2.63;;;;;;;;;;5023947;28;20029;-79
2022/04/02 06:10:46;;;;;;;3.35;2.35;;;;;;;;;;5033031;28;20029;-80
2022/04/02 06:13:13;;;;;;;5.55;3.50;;;;;;;;;;5037568;28;20108;-80
2022/04/02 06:15:38;;;;;;;4.00;2.70;;;;;;;;;;5021466;28;20029;-81
2022/04/02 06:18:04;;;;;;;5.53;3.30;;;;;;;;;;5028116;28;20621;-81
2022/04/02 06:20:31;;;;;;;6.70;4.10;;;;;;;;;;5029371;28;20037;-80
2022/04/02 06:22:57;;;;;;;6.40;3.50;;;;;;;;;;5030554;28;20029;-80
2022/04/02 06:25:23;;;;;;;2.88;1.73;;;;;;;;;;5026390;28;20037;-78
2022/04/02 06:27:49;;;;;;;2.20;1.60;;;;;;;;;;5031270;28;20025;-79
2022/04/02 06:30:18;;;;;;;4.20;2.28;;;;;;;;;;5034696;28;20048;-80
2022/04/02 06:32:44;;;;;;;4.45;2.17;;;;;;;;;;5029010;28;20108;-83
2022/04/02 06:35:10;;;;;;;3.88;2.53;;;;;;;;;;5023308;28;20122;-83
2022/04/02 06:37:38;;;;;;;5.18;2.50;;;;;;;;;;5033680;28;20048;-80
2022/04/02 06:40:04;;;;;;;7.53;3.65;;;;;;;;;;5039546;28;20492;-81
2022/04/02 06:42:30;;;;;;;3.67;1.65;;;;;;;;;;5032677;28;20174;-80
2022/04/02 06:44:56;;;;;;;2.28;1.60;;;;;;;;;;5015073;28;20048;-80
2022/04/02 06:47:26;;;;;;;2.92;1.95;;;;;;;;;;5029704;28;20421;-86
2022/04/02 06:49:52;;;;;;;5.68;2.58;;;;;;;;;;5032894;28;20409;-83
2022/04/02 06:52:18;;;;;;;3.75;2.03;;;;;;;;;;5039358;28;20211;-81
2022/04/02 06:54:44;;;;;;;1.83;1.30;;;;;;;;;;5037481;28;20028;-80
2022/04/02 06:57:10;;;;;;;4.22;2.33;;;;;;;;;;5033834;28;20565;-81
2022/04/02 06:59:36;;;;;;;4.95;2.50;;;;;;;;;;5044983;28;20346;-81
2022/04/02 07:02:03;;;;;;;7.38;2.47;;;;;;;;;;5038110;28;20037;-82
2022/04/02 07:04:29;;;;;;;4.63;2.38;;;;;;;;;;5045498;28;20033;-81
2022/04/02 07:06:55;;;;;;;3.15;2.25;;;;;;;;;;5033821;28;20088;-82
2022/04/02 07:09:20;;;;;;;4.18;2.65;;;;;;;;;;5036556;28;20568;-82
2022/04/02 07:11:46;;;;;;;3.22;2.50;;;;;;;;;;5036035;28;20033;-82
2022/04/02 07:14:13;;;;;;;8.10;3.00;;;;;;;;;;5026230;28;20634;-80
2022/04/02 07:16:39;;;;;;;7.88;3.40;;;;;;;;;;5025596;28;20067;-83
2022/04/02 07:19:05;;;;;;;3.35;1.98;;;;;;;;;;5026827;28;20128;-81
2022/04/02 07:21:32;;;;;;;3.53;2.22;;;;;;;;;;5032364;28;20040;-81
2022/04/02 07:23:58;;;;;;;12.25;4.78;;;;;;;;;;5035555;28;20056;-80
2022/04/02 07:26:24;;;;;;;6.15;4.25;;;;;;;;;;5038427;28;20029;-79
2022/04/02 07:28:52;;;;;;;6.53;3.17;;;;;;;;;;5044084;28;20458;-80
2022/04/02 07:31:18;;;;;;;9.93;5.10;;;;;;;;;;5037496;28;20079;-81
2022/04/02 07:33:44;;;;;;;5.18;2.60;;;;;;;;;;5037697;28;20061;-80
2022/04/02 07:36:18;;;;;;;3.83;2.72;;;;;;;;;;5038261;28;20060;-80
2022/04/02 07:39:11;;;;;;;12.73;4.82;;;;;;;;;;5036890;28;20034;-81
2022/04/02 07:41:46;;;;;;;6.53;3.17;;;;;;;;;;5043292;28;20042;-81
2022/04/02 07:44:30;;;;;;;11.82;4.15;;;;;;;;;;5040798;28;20021;-82
2022/04/02 07:46:57;;;;;;;9.18;4.53;;;;;;;;;;5033117;28;20041;-79
2022/04/02 07:49:24;;;;;;;7.78;4.50;;;;;;;;;;5034239;28;20470;-81
2022/04/02 07:51:53;;;;;;;10.38;5.03;;;;;;;;;;5035683;28;20033;-79
2022/04/02 07:54:21;;;;;;;6.53;3.05;;;;;;;;;;5033385;28;20485;-79
2022/04/02 07:56:49;;;;;;;6.50;3.08;;;;;;;;;;5032369;28;20045;-81
2022/04/02 07:59:31;;;;;;;5.82;2.70;;;;;;;;;;5034212;28;20029;-80
2022/04/02 08:01:57;;;;;;;7.22;4.13;;;;;;;;;;5031489;28;20033;-80
2022/04/02 08:04:25;;;;;;;8.65;3.08;;;;;;;;;;5023021;28;20044;-80
2022/04/02 08:06:52;;;;;;;2.90;1.60;;;;;;;;;;5028593;28;20041;-81
2022/04/02 08:09:18;;;;;;;7.53;3.15;;;;;;;;;;5026279;28;20120;-80
2022/04/02 08:11:46;;;;;;;6.72;3.58;;;;;;;;;;5028187;28;20105;-81
2022/04/02 08:14:12;;;;;;;3.67;2.13;;;;;;;;;;5028999;28;20032;-81
2022/04/02 08:16:43;;;;;;;4.65;2.88;;;;;;;;;;5017546;28;20056;-79
2022/04/02 08:19:09;;;;;;;5.07;2.58;;;;;;;;;;5023056;28;20029;-78
2022/04/02 08:21:35;;;;;;;9.32;3.30;;;;;;;;;;5034548;28;20496;-78
2022/04/02 08:24:02;;;;;;;5.25;2.90;;;;;;;;;;5032263;28;20026;-78
2022/04/02 08:26:33;;;;;;;3.53;1.98;;;;;;;;;;5030895;28;20037;-78
2022/04/02 08:29:17;;;;;;;6.72;4.28;;;;;;;;;;5029214;28;20034;-79
2022/04/02 08:31:46;;;;;;;3.35;2.35;;;;;;;;;;5027666;28;20021;-78
2022/04/02 08:34:33;;;;;;;7.32;3.47;;;;;;;;;;5036216;28;20433;-78
2022/04/02 08:37:04;;;;;;;4.63;3.10;;;;;;;;;;5032602;28;20128;-80
2022/04/02 08:39:29;;;;;;;6.47;3.20;;;;;;;;;;5035691;28;20032;-78
2022/04/02 08:42:11;;;;;;;4.28;2.30;;;;;;;;;;5030114;28;20029;-79
2022/04/02 08:44:43;;;;;;;3.92;2.38;;;;;;;;;;5024156;28;20044;-79
2022/04/02 08:47:29;;;;;;;6.05;2.58;;;;;;;;;;5028415;28;20083;-80
2022/04/02 08:50:06;;;;;;;3.70;1.83;;;;;;;;;;5013151;28;20501;-80
2022/04/02 08:52:48;;;;;;;4.90;2.63;;;;;;;;;;5032167;28;20056;-80
2022/04/02 08:55:19;;;;;;;4.10;1.83;;;;;;;;;;5019514;28;20772;-80
2022/04/02 08:57:47;;;;;;;4.93;2.53;;;;;;;;;;5026468;28;20075;-80
2022/04/02 09:00:14;;;;;;;4.93;2.65;;;;;;;;;;5031426;28;20151;-80
2022/04/02 09:02:46;;;;;;;4.03;2.55;;;;;;;;;;5025960;28;20049;-80
2022/04/02 09:05:20;;;;;;;4.53;2.60;;;;;;;;;;5028723;28;20545;-79
2022/04/02 09:07:46;;;;;;;7.25;3.25;;;;;;;;;;5030429;28;20033;-80
2022/04/02 09:10:27;;;;;;;8.77;3.42;;;;;;;;;;5021295;28;20206;-80
2022/04/02 09:13:12;;;;;;;2.63;1.55;;;;;;;;;;5029717;28;20038;-79
2022/04/02 09:15:37;;;;;;;2.83;1.95;;;;;;;;;;5031912;28;20044;-79
2022/04/02 09:18:03;;;;;;;6.30;2.45;;;;;;;;;;5029960;28;20500;-80
2022/04/02 09:20:35;;;;;;;5.18;2.55;;;;;;;;;;5022231;28;20029;-79
2022/04/02 09:23:21;;;;;;;6.28;2.88;;;4.00;99.90;;;;;;5026526;28;20037;-79
2022/04/02 09:26:06;;;;;;;5.43;2.78;;;;;;;;;;5035696;28;20024;-79
2022/04/02 09:28:36;;;;;;;6.03;3.47;;;;;;;;;;5030390;28;20027;-81
2022/04/02 09:31:18;;;;;;;6.15;3.08;;;;;;;;;;5042608;28;20937;-80
2022/04/02 09:34:03;;;;;;;5.32;2.85;;;;;;;;;;5039651;28;20067;-81
2022/04/02 09:36:41;;;;;;;4.07;2.72;;;;;;;;;;5040037;28;20711;-80
2022/04/02 09:39:13;;;;;;;5.88;3.10;;;;;;;;;;5040434;28;20071;-80
2022/04/02 09:42:03;;;;;;;4.95;2.83;;;;;;;;;;5030595;28;20051;-80
2022/04/02 09:44:29;;;;;;;6.13;4.00;;;;;;;;;;5045594;28;20029;-82
2022/04/02 09:47:01;;;;;;;4.68;2.92;;;;;;;;;;5044245;28;20045;-81
2022/04/02 09:49:27;;;;;;;5.32;2.92;;;;;;;;;;5039969;28;20025;-80
2022/04/02 09:51:57;;;;;;;4.38;2.67;;;;;;;;;;5041130;28;21197;-78
2022/04/02 09:54:23;;;;;;;4.53;3.22;;;;;;;;;;5038987;28;20080;-80
2022/04/02 09:56:51;;;;;;;4.85;3.28;;;;;;;;;;5035505;28;20444;-81
2022/04/02 09:59:35;;;;;;;5.55;2.72;;;;;;;;;;5042548;28;20020;-81
2022/04/02 10:02:05;;;;;;;9.57;3.40;;;;;;;;;;5037777;28;20035;-79
2022/04/02 10:04:47;;;;;;;9.32;5.32;;;4.20;99.90;;;;;;5036573;28;20516;-80
2022/04/02 10:07:29;;;;;;;4.65;3.28;;;;;;;;;;5028916;28;20769;-80
2022/04/02 10:09:56;;;;;;;5.30;2.47;;;;;;;;;;5030950;28;20110;-79
2022/04/02 10:12:28;;;;;;;6.78;3.10;;;;;;;;;;5042259;28;20033;-80
2022/04/02 10:14:56;;;;;;;6.97;3.95;;;;;;;;;;5044662;28;20036;-79
2022/04/02 10:17:28;;;;;;;4.07;2.95;;;;;;;;;;5039129;28;20128;-81
2022/04/02 10:19:55;;;;;;;13.93;4.03;;;;;;;;;;5043320;28;20025;-79
2022/04/02 10:22:29;;;;;;;10.05;4.57;;;;;;;;;;5019783;28;20726;-80
2022/04/02 10:25:00;;;;;;;3.60;2.08;;;;;;;;;;5038974;28;20091;-82
2022/04/02 10:27:36;;;;;;;3.78;2.95;;;;;;;;;;5042079;28;20036;-81
2022/04/02 10:30:06;;;;;;;11.35;3.88;;;;;;;;;;5049930;28;20529;-81
2022/04/02 10:32:50;;;;;;;8.40;2.80;;;;;;;;;;5046427;28;20040;-81
2022/04/02 10:35:16;;;;;;;5.20;3.30;;;;;;;;;;5051566;28;20052;-80
2022/04/02 10:37:42;;;;;;;5.22;2.80;;;;;;;;;;5040016;28;20037;-80
2022/04/02 10:40:10;;;;;;;4.35;2.20;;;;;;;;;;5044652;28;20105;-80
2022/04/02 10:42:38;;;;;;;5.53;3.08;;;;;;;;;;5044635;28;20124;-80
2022/04/02 10:45:14;;;;;;;4.68;2.97;;;;;;;;;;5051015;28;20025;-81
2022/04/02 10:47:47;;;;;;;5.63;2.97;;;;;;;;;;5041273;28;20063;-82
2022/04/02 10:50:16;;;;;;;4.00;1.77;;;;;;;;;;5037552;28;20064;-81
2022/04/02 10:52:43;;;;;;;6.70;2.53;;;;;;;;;;5038088;28;20048;-80
2022/04/02 10:55:11;;;;;;;4.03;2.15;;;;;;;;;;5028291;28;20489;-81
2022/04/02 10:57:37;;;;;;;5.32;3.05;;;;;;;;;;5041219;28;20033;-81
2022/04/02 11:00:05;;;;;;;4.38;2.60;;;;;;;;;;5043155;28;20037;-81
2022/04/02 11:02:51;;;;;;;3.65;2.30;;;;;;;;;;5044507;28;20028;-80
2022/04/02 11:05:17;;;;;;;6.57;3.33;;;;;;;;;;5028953;28;20041;-81
2022/04/02 11:07:45;;;;;;;3.58;2.20;;;;;;;;;;5037698;28;20026;-81
2022/04/02 11:10:15;;;;;;;5.63;3.53;;;;;;;;;;5028656;28;20025;-81
2022/04/02 11:12:42;;;;;;;6.40;3.30;;;;;;;;;;5032191;28;20032;-80
2022/04/02 11:15:08;;;;;;;4.93;3.20;;;;;;;;;;5037431;28;20020;-81
2022/04/02 11:17:41;;;;;;;4.35;2.63;;;;;;;;;;5038900;28;20041;-79
2022/04/02 11:20:18;;;;;;;6.13;2.85;;;;;;;;;;5039785;28;20132;-81
2022/04/02 11:22:49;;;;;;;4.20;2.67;;;;;;;;;;5033478;28;20029;-81
2022/04/02 11:25:32;;;;;;;3.60;2.47;;;;;;;;;;5036318;28;20040;-80
2022/04/02 11:28:09;;;;;;;8.18;3.03;;;6.20;99.90;;;;;;5032252;28;20033;-80
2022/04/02 11:30:39;;;;;;;5.50;3.28;;;6.10;99.90;;;;;;5036521;28;20718;-82
2022/04/02 11:33:08;;;;;;;5.28;2.88;;;;;;;;;;5034438;28;20073;-81
2022/04/02 11:35:39;;;;;;;5.68;2.70;;;6.00;99.90;;;;;;5043303;28;20502;-80
2022/04/02 11:38:10;;;;;;;6.00;3.40;;;6.30;99.90;;;;;;5043183;28;20461;-80
2022/04/02 11:40:39;;;;;;;4.45;2.53;;;;;;;;;;5045171;28;20480;-81
2022/04/02 11:43:06;;;;;;;5.47;2.50;;;;;;;;;;5040406;28;20029;-80
2022/04/02 11:45:32;;;;;;;4.20;2.75;;;;;;;;;;5032953;28;20033;-80
2022/04/02 11:48:00;;;;;;;4.38;2.50;;;;;;;;;;5045773;28;20389;-80
2022/04/02 11:50:28;;;;;;;5.28;2.97;;;;;;;;;;5044707;28;20029;-80
2022/04/02 11:52:55;;;;;;;5.40;2.63;;;;;;;;;;5038091;28;20441;-81
2022/04/02 11:55:24;;;;;;;7.43;3.28;;;6.60;99.90;;;;;;5037641;28;20489;-81
2022/04/02 11:58:02;;;;;;;133.95;39.42;;;6.30;99.90;;;;;;5039219;28;20091;-79
2022/04/02 12:00:29;;;;;;;22.40;10.32;;;;;;;;;;5039436;28;20030;-82
2022/04/02 12:02:55;;;;;;;145.98;45.33;;;;;;;;;;5042863;28;20021;-81
2022/04/02 12:05:21;;;;;;;177.60;57.03;;;;;;;;;;5039744;28;20053;-82
2022/04/02 12:07:48;;;;;;;105.63;35.33;;;;;;;;;;5039223;28;20027;-81
2022/04/02 12:10:17;;;;;;;14.98;6.28;;;;;;;;;;5042545;28;20040;-82
2022/04/02 12:12:47;;;;;;;35.50;13.85;;;;;;;;;;5040440;28;20108;-81
2022/04/02 12:15:15;;;;;;;19.25;10.63;;;;;;;;;;5034595;28;20557;-80
2022/04/02 12:17:45;;;;;;;12.10;6.15;;;;;;;;;;5030154;28;20525;-79
2022/04/02 12:20:11;;;;;;;8.18;3.47;;;;;;;;;;5039215;28;20018;-81
2022/04/02 12:22:41;;;;;;;6.78;3.33;;;;;;;;;;5034977;28;20458;-80
2022/04/02 12:25:10;;;;;;;6.53;3.80;;;;;;;;;;5033709;28;20021;-80
2022/04/02 12:27:36;;;;;;;6.55;3.42;;;;;;;;;;5031730;28;20025;-81
2022/04/02 12:30:06;;;;;;;7.07;3.35;;;;;;;;;;5036443;28;20089;-80
2022/04/02 12:32:32;;;;;;;7.70;2.88;;;;;;;;;;5041394;28;20040;-81
2022/04/02 12:35:07;;;;;;;6.45;3.50;;;;;;;;;;5034407;28;20097;-81
2022/04/02 12:37:45;;;;;;;5.88;3.42;;;;;;;;;;5040146;28;20194;-81
2022/04/02 12:40:21;;;;;;;8.77;3.97;;;;;;;;;;5038887;28;20090;-80
2022/04/02 12:42:48;;;;;;;5.15;3.63;;;;;;;;;;5038322;28;20049;-79
2022/04/02 12:45:18;;;;;;;6.85;4.18;;;;;;;;;;5034349;28;20056;-80
2022/04/02 12:47:57;;;;;;;5.55;3.42;;;;;;;;;;5038597;28;20444;-80
2022/04/02 12:50:24;;;;;;;9.20;4.05;;;;;;;;;;5042277;28;20033;-82
2022/04/02 12:52:50;;;;;;;9.63;4.57;;;;;;;;;;5036029;28;20033;-80
2022/04/02 12:55:17;;;;;;;5.40;3.70;;;;;;;;;;5032004;28;20079;-79
2022/04/02 12:58:07;;;;;;;7.10;4.28;;;;;;;;;;5030586;28;20044;-80
2022/04/02 13:00:35;;;;;;;7.15;4.13;;;;;;;;;;5032409;28;20045;-80
2022/04/02 13:03:02;;;;;;;5.68;3.35;;;;;;;;;;5045480;28;20519;-80
2022/04/02 13:05:44;;;;;;;9.23;4.07;;;;;;;;;;5032469;28;20148;-80
2022/04/02 13:08:13;;;;;;;8.05;4.22;;;;;;;;;;5041060;28;20033;-79
2022/04/02 13:10:43;;;;;;;4.97;2.58;;;;;;;;;;5046615;28;20056;-78
2022/04/02 13:13:12;;;;;;;6.03;3.88;;;;;;;;;;5045122;28;20627;-79
2022/04/02 13:15:38;;;;;;;7.30;4.68;;;;;;;;;;5044463;28;20575;-80
2022/04/02 13:20:57;;;;;;;14.73;8.30;;;;;;;;;;5038701;28;20036;-79
2022/04/02 13:23:46;;;;;;;12.10;5.55;;;;;;;;;;5041593;28;20021;-79
2022/04/02 13:26:14;;;;;;;12.07;4.43;;;;;;;;;;5026191;28;20152;-80
2022/04/02 13:28:46;;;;;;;5.82;3.50;;;;;;;;;;5038589;28;20052;-77
2022/04/02 13:31:13;;;;;;;10.90;4.68;;;;;;;;;;5037543;28;20041;-78
2022/04/02 13:33:57;;;;;;;8.52;4.60;;;;;;;;;;5033982;28;20024;-78
2022/04/02 13:36:46;;;;;;;8.02;4.30;;;6.30;99.90;;;;;;5040085;28;20045;-77
2022/04/02 13:39:15;;;;;;;7.03;3.40;;;;;;;;;;5054584;28;20026;-77
2022/04/02 13:41:41;;;;;;;7.05;3.67;;;;;;;;;;5054974;28;20100;-78
2022/04/02 13:44:18;;;;;;;14.05;4.25;;;;;;;;;;5041912;28;20087;-78
2022/04/02 13:46:48;;;;;;;6.85;4.32;;;;;;;;;;5038008;28;20132;-78
2022/04/02 13:49:19;;;;;;;10.73;4.85;;;;;;;;;;5041116;28;20040;-77
2022/04/02 13:51:46;;;;;;;8.80;4.85;;;;;;;;;;5038456;28;20045;-77
2022/04/02 13:54:23;;;;;;;6.38;3.60;;;;;;;;;;5038390;28;20064;-79
2022/04/02 13:56:55;;;;;;;9.07;3.83;;;;;;;;;;5058029;28;20037;-78
2022/04/02 13:59:26;;;;;;;6.05;3.55;;;;;;;;;;5040754;28;20039;-79
2022/04/02 14:01:53;;;;;;;10.88;4.75;;;;;;;;;;5041445;28;20037;-79
2022/04/02 14:04:39;;;;;;;10.43;4.55;;;;;;;;;;5037629;28;20033;-79
2022/04/02 14:07:07;;;;;;;5.70;4.18;;;;;;;;;;5041662;28;20117;-79
2022/04/02 14:09:33;;;;;;;6.68;3.75;;;;;;;;;;5045894;28;20029;-79
2022/04/02 14:12:09;;;;;;;7.82;4.35;;;;;;;;;;5038618;28;20057;-78
2022/04/02 14:14:55;;;;;;;6.28;3.45;;;;;;;;;;5036278;28;20059;-80
2022/04/02 14:17:29;;;;;;;6.22;3.95;;;;;;;;;;5027309;28;20049;-79
2022/04/02 14:20:06;;;;;;;10.27;5.53;;;;;;;;;;5045672;28;20021;-79
2022/04/02 14:22:37;;;;;;;7.47;4.75;;;;;;;;;;5029459;28;20024;-79
2022/04/02 14:25:29;;;;;;;10.70;5.13;;;;;;;;;;5036937;28;20054;-79
2022/04/02 14:28:13;;;;;;;10.70;4.22;;;;;;;;;;5033909;28;23528;-79
2022/04/02 14:30:39;;;;;;;10.07;3.80;;;;;;;;;;5033420;28;20262;-79
2022/04/02 14:33:55;;;;;;;12.77;5.28;;;6.20;99.90;;;;;;5039164;28;20025;-78
2022/04/02 14:36:24;;;;;;;7.05;4.03;;;;;;;;;;5017930;28;20441;-79
2022/04/02 14:39:08;;;;;;;10.05;4.47;;;;;;;;;;5033200;28;20086;-79
2022/04/02 14:41:53;;;;;;;5.63;4.07;;;;;;;;;;5033796;28;20224;-78
2022/04/02 14:44:28;;;;;;;4.97;3.63;;;;;;;;;;5038650;28;20044;-78
2022/04/02 14:47:13;;;;;;;7.63;4.10;;;;;;;;;;5031492;28;20044;-79
2022/04/02 14:50:05;;;;;;;7.18;4.22;;;;;;;;;;5034255;28;20112;-78
2022/04/02 14:52:34;;;;;;;8.25;3.97;;;;;;;;;;5035908;28;20095;-79
2022/04/02 14:55:09;;;;;;;6.97;4.05;;;;;;;;;;5031636;28;20564;-78
2022/04/02 14:57:54;;;;;;;10.75;3.90;;;;;;;;;;5027002;28;20045;-78
2022/04/02 15:00:32;;;;;;;6.45;3.17;;;;;;;;;;5028361;28;20033;-79